createdAt,value
2023-12-03T00:01:48.093Z,83.28
2023-12-03T00:04:52.332Z,89.25
2023-12-03T00:07:54.928Z,104.57
2023-12-03T00:10:57.363Z,97.70
2023-12-03T00:13:59.750Z,114.63
2023-12-03T00:17:02.182Z,124.72
2023-12-03T00:20:04.973Z,122.97
2023-12-03T00:23:07.381Z,182.40
2023-12-03T00:26:09.786Z,121.95
2023-12-03T00:29:12.727Z,108.15
2023-12-03T00:32:15.086Z,116.93
2023-12-03T00:35:17.456Z,109.72
2023-12-03T00:38:19.807Z,128.25
2023-12-03T00:41:22.281Z,146.15
2023-12-03T00:44:24.713Z,105.35
2023-12-03T00:47:27.287Z,129.75
2023-12-03T00:50:29.724Z,133.27
2023-12-03T00:53:32.094Z,148.55
2023-12-03T00:56:34.426Z,162.63
2023-12-03T00:59:36.905Z,152.90
2023-12-03T01:02:39.290Z,138.52
2023-12-03T01:05:41.825Z,163.30
2023-12-03T01:08:44.219Z,178.35
2023-12-03T01:11:46.653Z,165.40
2023-12-03T01:14:49.001Z,186.15
2023-12-03T01:17:51.457Z,181.68
2023-12-03T01:20:53.792Z,190.25
2023-12-03T01:23:56.127Z,220.50
2023-12-03T01:26:58.484Z,197.70
2023-12-03T01:30:00.888Z,178.77
2023-12-03T01:33:03.389Z,172.18
2023-12-03T01:36:06.129Z,159.57
2023-12-03T01:39:08.606Z,191.55
2023-12-03T01:42:11.024Z,198.35
2023-12-03T01:45:13.493Z,180.15
2023-12-03T01:48:16.222Z,213.63
2023-12-03T01:51:19.095Z,228.82
2023-12-03T01:54:21.692Z,191.05
2023-12-03T01:57:24.449Z,235.18
2023-12-03T02:00:26.992Z,169.90
2023-12-03T02:03:30.250Z,224.98
2023-12-03T02:06:32.854Z,175.32
2023-12-03T02:09:35.477Z,200.45
2023-12-03T02:12:38.795Z,264.75
2023-12-03T02:15:41.370Z,252.10
2023-12-03T02:18:44.252Z,207.25
2023-12-03T02:21:46.724Z,197.88
2023-12-03T02:24:49.096Z,213.40
2023-12-03T02:27:51.494Z,195.82
2023-12-03T02:30:54.037Z,202.38
2023-12-03T02:34:22.810Z,190.48
2023-12-03T02:37:25.193Z,182.68
2023-12-03T02:40:27.770Z,158.27
2023-12-03T02:43:30.207Z,167.85
2023-12-03T02:46:32.664Z,180.18
2023-12-03T02:49:35.113Z,176.77
2023-12-03T02:52:37.678Z,155.52
2023-12-03T02:55:40.037Z,148.40
2023-12-03T02:58:42.774Z,157.32
2023-12-03T03:01:45.185Z,156.07
2023-12-03T03:04:47.881Z,143.30
2023-12-03T03:07:50.270Z,145.18
2023-12-03T03:10:52.791Z,143.60
2023-12-03T03:13:55.164Z,135.30
2023-12-03T03:16:57.549Z,151.65
2023-12-03T03:19:59.921Z,142.63
2023-12-03T03:23:02.337Z,145.95
2023-12-03T03:26:04.871Z,133.50
2023-12-03T03:29:07.775Z,141.25
2023-12-03T03:32:10.285Z,146.93
2023-12-03T03:35:12.870Z,139.32
2023-12-03T03:38:15.275Z,107.22
2023-12-03T03:41:17.628Z,114.30
2023-12-03T03:44:19.958Z,153.98
2023-12-03T03:47:22.330Z,114.60
2023-12-03T03:50:24.711Z,119.40
2023-12-03T03:53:27.257Z,114.15
2023-12-03T03:56:29.648Z,127.88
2023-12-03T03:59:32.006Z,117.85
2023-12-03T04:02:34.460Z,118.78
2023-12-03T04:05:36.980Z,112.60
2023-12-03T04:08:40.955Z,97.63
2023-12-03T04:14:46.036Z,138.85
2023-12-03T04:17:48.504Z,141.85
2023-12-03T04:20:51.216Z,134.23
2023-12-03T04:23:53.502Z,143.52
2023-12-03T04:26:55.828Z,128.75
2023-12-03T04:29:58.444Z,127.22
2023-12-03T04:33:00.948Z,125.80
2023-12-03T04:36:08.812Z,112.10
2023-12-03T04:39:11.299Z,119.40
2023-12-03T04:42:13.693Z,105.70
2023-12-03T04:45:16.220Z,120.72
2023-12-03T04:48:18.637Z,118.07
2023-12-03T04:51:21.060Z,135.88
2023-12-03T04:54:23.792Z,122.32
2023-12-03T04:57:26.379Z,87.43
2023-12-03T05:00:28.717Z,122.80
2023-12-03T05:03:31.376Z,121.10
2023-12-03T05:06:33.910Z,117.80
2023-12-03T05:09:41.207Z,116.57
2023-12-03T05:12:44.143Z,111.80
2023-12-03T05:15:46.646Z,95.82
2023-12-03T05:18:49.496Z,98.03
2023-12-03T05:21:52.002Z,103.57
2023-12-03T05:24:54.451Z,115.53
2023-12-03T05:27:56.805Z,98.20
2023-12-03T05:30:59.084Z,104.40
2023-12-03T05:34:01.572Z,94.20
2023-12-03T05:37:05.160Z,82.28
2023-12-03T05:40:10.135Z,73.25
2023-12-03T05:43:12.462Z,71.80
2023-12-03T05:46:14.850Z,61.78
2023-12-03T05:49:17.231Z,50.40
2023-12-03T05:52:19.639Z,41.55
2023-12-03T05:55:21.995Z,42.85
2023-12-03T05:58:24.648Z,38.17
2023-12-03T06:01:27.230Z,35.63
2023-12-03T06:04:29.568Z,37.95
2023-12-03T06:07:31.940Z,34.72
2023-12-03T06:10:34.295Z,30.92
2023-12-03T06:13:36.785Z,32.10
2023-12-03T06:16:39.406Z,29.73
2023-12-03T06:19:41.860Z,34.15
2023-12-03T06:22:44.288Z,24.80
2023-12-03T06:25:46.544Z,26.27
2023-12-03T06:28:48.985Z,24.35
2023-12-03T06:31:51.376Z,21.38
2023-12-03T06:34:53.686Z,17.30
2023-12-03T06:37:56.033Z,19.08
2023-12-03T06:40:58.454Z,13.60
2023-12-03T06:44:01.028Z,10.82
2023-12-03T06:47:03.424Z,13.27
2023-12-03T06:50:06.669Z,11.52
2023-12-03T06:53:09.023Z,7.38
2023-12-03T06:56:12.442Z,11.43
2023-12-03T06:59:14.827Z,10.55
2023-12-03T07:02:19.397Z,10.00
2023-12-03T07:05:21.838Z,7.70
2023-12-03T07:08:24.154Z,8.57
2023-12-03T07:11:27.411Z,8.10
2023-12-03T07:14:29.775Z,5.50
2023-12-03T07:17:32.158Z,8.38
2023-12-03T07:20:34.553Z,8.38
2023-12-03T07:23:36.884Z,7.38
2023-12-03T07:26:39.199Z,8.20
2023-12-03T07:29:41.536Z,6.20
2023-12-03T07:32:43.896Z,8.55
2023-12-03T07:35:46.322Z,6.72
2023-12-03T07:38:48.735Z,5.70
2023-12-03T07:41:54.784Z,6.80
2023-12-03T07:44:57.194Z,5.68
2023-12-03T07:47:59.622Z,6.53
2023-12-03T07:51:02.136Z,7.05
2023-12-03T07:54:04.603Z,7.57
2023-12-03T07:57:07.136Z,5.38
2023-12-03T08:00:09.801Z,5.80
2023-12-03T08:03:14.711Z,5.22
2023-12-03T08:06:17.119Z,6.20
2023-12-03T08:09:19.626Z,5.18
2023-12-03T08:12:22.157Z,5.47
2023-12-03T08:15:24.613Z,4.43
2023-12-03T08:18:27.082Z,5.03
2023-12-03T08:21:31.439Z,5.47
2023-12-03T08:24:33.825Z,4.60
2023-12-03T08:27:36.261Z,5.18
2023-12-03T08:30:39.784Z,4.15
2023-12-03T08:33:42.336Z,4.85
2023-12-03T08:36:45.053Z,37.03
2023-12-03T08:39:47.486Z,39.95
2023-12-03T08:42:49.999Z,15.65
2023-12-03T08:45:52.356Z,10.82
2023-12-03T08:48:54.826Z,11.95
2023-12-03T08:51:57.390Z,12.25
2023-12-03T08:55:01.267Z,9.45
2023-12-03T08:58:03.614Z,10.07
2023-12-03T09:01:06.153Z,13.23
2023-12-03T09:04:08.677Z,16.35
2023-12-03T09:07:11.022Z,14.63
2023-12-03T09:10:13.361Z,44.47
2023-12-03T09:13:15.861Z,18.15
2023-12-03T09:16:18.396Z,17.63
2023-12-03T09:19:21.150Z,18.42
2023-12-03T09:22:23.562Z,24.40
2023-12-03T09:25:25.850Z,20.08
2023-12-03T09:28:31.353Z,15.52
2023-12-03T09:31:33.844Z,19.08
2023-12-03T09:34:36.269Z,21.48
2023-12-03T09:37:38.715Z,20.80
2023-12-03T09:40:41.051Z,20.25
2023-12-03T09:43:47.050Z,33.05
2023-12-03T09:46:52.155Z,33.28
2023-12-03T09:49:59.254Z,25.75
2023-12-03T09:53:04.250Z,20.65
2023-12-03T09:56:07.204Z,15.23
2023-12-03T09:59:14.453Z,14.53
2023-12-03T10:02:18.371Z,15.00
2023-12-03T10:08:23.384Z,12.88
2023-12-03T10:11:27.328Z,11.73
2023-12-03T10:14:30.123Z,12.40
2023-12-03T10:17:32.553Z,12.88
2023-12-03T10:20:34.966Z,15.60
2023-12-03T10:23:37.853Z,14.85
2023-12-03T10:26:54.010Z,15.87
2023-12-03T10:29:56.373Z,18.73
2023-12-03T10:32:59.040Z,14.60
2023-12-03T10:36:04.966Z,17.38
2023-12-03T10:39:13.889Z,14.52
2023-12-03T10:42:16.287Z,15.40
2023-12-03T10:45:18.873Z,14.32
2023-12-03T10:48:22.179Z,12.43
2023-12-03T10:51:24.779Z,14.57
2023-12-03T10:54:27.735Z,18.45
2023-12-03T10:57:32.476Z,12.40
2023-12-03T11:00:41.776Z,16.58
2023-12-03T11:03:51.401Z,9.55
2023-12-03T11:06:56.924Z,12.73
2023-12-03T11:09:59.599Z,12.75
2023-12-03T11:13:02.166Z,13.38
2023-12-03T11:16:06.526Z,15.18
2023-12-03T11:19:13.535Z,15.52
2023-12-03T11:22:21.626Z,12.43
2023-12-03T11:25:29.546Z,16.23
2023-12-03T11:28:32.907Z,21.67
2023-12-03T11:31:35.280Z,87.90
2023-12-03T11:34:38.684Z,103.28
2023-12-03T11:37:44.858Z,17.83
2023-12-03T11:40:47.497Z,22.02
2023-12-03T11:43:50.881Z,18.08
2023-12-03T11:47:02.396Z,18.50
2023-12-03T11:50:05.506Z,24.17
2023-12-03T11:53:09.518Z,14.13
2023-12-03T11:56:13.103Z,14.75
2023-12-03T11:59:15.772Z,13.98
2023-12-03T12:02:18.396Z,15.30
2023-12-03T12:05:20.970Z,14.82
2023-12-03T12:08:24.645Z,14.18
2023-12-03T12:14:29.493Z,13.38
2023-12-03T12:17:33.349Z,13.73
2023-12-03T12:20:35.905Z,14.93
2023-12-03T12:23:38.736Z,12.98
2023-12-03T12:26:41.087Z,13.05
2023-12-03T12:29:43.474Z,12.77
2023-12-03T12:32:47.097Z,13.05
2023-12-03T12:35:52.664Z,16.98
2023-12-03T12:38:55.141Z,16.02
2023-12-03T12:42:00.843Z,15.15
2023-12-03T12:45:04.406Z,15.75
2023-12-03T12:48:35.157Z,22.00
2023-12-03T12:51:37.763Z,14.38
2023-12-03T12:54:47.679Z,19.52
2023-12-03T12:57:50.004Z,15.23
2023-12-03T13:00:52.410Z,16.35
2023-12-03T13:03:54.907Z,16.70
2023-12-03T13:06:57.381Z,18.15
2023-12-03T13:09:59.959Z,18.02
2023-12-03T13:13:02.496Z,20.98
2023-12-03T13:16:05.502Z,16.70
2023-12-03T13:19:08.692Z,16.70
2023-12-03T13:22:11.123Z,15.35
2023-12-03T13:25:13.957Z,20.13
2023-12-03T13:28:16.569Z,13.02
2023-12-03T13:31:19.001Z,17.02
2023-12-03T13:34:21.453Z,16.88
2023-12-03T13:37:23.897Z,17.13
2023-12-03T13:40:26.779Z,17.60
2023-12-03T13:43:29.476Z,17.13
2023-12-03T13:46:31.772Z,18.25
2023-12-03T13:49:34.318Z,18.65
2023-12-03T13:52:36.707Z,17.42
2023-12-03T13:55:39.003Z,19.88
2023-12-03T13:58:41.401Z,20.38
2023-12-03T14:01:44.564Z,22.35
2023-12-03T14:04:47.287Z,17.38
2023-12-03T14:07:49.903Z,15.93
2023-12-03T14:10:52.301Z,21.73
2023-12-03T14:13:55.151Z,19.80
2023-12-03T14:16:58.629Z,18.57
2023-12-03T14:20:01.229Z,20.52
2023-12-03T14:23:03.685Z,28.42
2023-12-03T14:26:06.608Z,19.40
2023-12-03T14:29:15.311Z,21.50
2023-12-03T14:32:17.712Z,29.83
2023-12-03T14:35:20.640Z,29.17
2023-12-03T14:38:22.997Z,27.08
2023-12-03T14:41:25.426Z,32.70
2023-12-03T14:44:27.806Z,22.25
2023-12-03T14:47:30.226Z,44.50
2023-12-03T14:50:33.400Z,102.32
2023-12-03T14:53:35.753Z,76.57
2023-12-03T14:56:38.268Z,81.22
2023-12-03T14:59:40.748Z,37.05
2023-12-03T15:02:45.186Z,52.10
2023-12-03T15:05:47.564Z,43.38
2023-12-03T15:08:50.866Z,28.55
2023-12-03T15:11:53.295Z,21.75
2023-12-03T15:14:55.724Z,26.50
2023-12-03T15:17:58.058Z,23.85
2023-12-03T15:21:00.528Z,25.40
2023-12-03T15:24:02.966Z,20.35
2023-12-03T15:27:05.894Z,28.08
2023-12-03T15:30:09.204Z,15.67
2023-12-03T15:33:11.655Z,18.40
2023-12-03T15:36:14.107Z,21.13
2023-12-03T15:39:16.564Z,23.83
2023-12-03T15:42:18.994Z,23.23
2023-12-03T15:45:27.891Z,25.38
2023-12-03T15:48:30.609Z,26.05
2023-12-03T15:51:33.570Z,24.80
2023-12-03T15:54:36.148Z,22.75
2023-12-03T15:57:38.911Z,21.27
2023-12-03T16:00:42.283Z,22.23
2023-12-03T16:03:44.758Z,22.65
2023-12-03T16:06:47.554Z,21.42
2023-12-03T16:09:52.814Z,25.88
2023-12-03T16:12:55.338Z,26.27
2023-12-03T16:15:57.725Z,24.13
2023-12-03T16:19:00.502Z,20.48
2023-12-03T16:22:03.506Z,17.90
2023-12-03T16:25:06.233Z,24.20
2023-12-03T16:28:08.891Z,23.13
2023-12-03T16:31:11.527Z,24.88
2023-12-03T16:34:15.920Z,28.48
2023-12-03T16:37:19.996Z,28.10
2023-12-03T16:40:28.566Z,23.45
2023-12-03T16:43:32.413Z,28.58
2023-12-03T16:49:43.481Z,23.73
2023-12-03T16:52:46.079Z,26.63
2023-12-03T16:55:50.286Z,25.55
2023-12-03T16:58:52.618Z,24.10
2023-12-03T17:01:56.304Z,24.90
2023-12-03T17:04:58.834Z,26.67
2023-12-03T17:08:03.416Z,27.45
2023-12-03T17:11:06.696Z,23.95
2023-12-03T17:14:09.742Z,23.60
2023-12-03T17:17:12.078Z,24.38
2023-12-03T17:20:14.853Z,30.83
2023-12-03T17:23:17.621Z,26.67
2023-12-03T17:26:21.181Z,26.33
2023-12-03T17:29:23.670Z,26.90
2023-12-03T17:32:26.118Z,27.98
2023-12-03T17:35:28.785Z,26.75
2023-12-03T17:38:31.653Z,25.95
2023-12-03T17:41:34.002Z,27.08
2023-12-03T17:44:36.582Z,34.08
2023-12-03T17:47:40.140Z,32.42
2023-12-03T17:50:42.578Z,27.75
2023-12-03T17:53:45.179Z,26.33
2023-12-03T17:56:47.571Z,26.17
2023-12-03T17:59:50.635Z,30.33
2023-12-03T18:02:53.754Z,31.73
2023-12-03T18:05:56.405Z,29.50
2023-12-03T18:08:58.762Z,29.65
2023-12-03T18:12:03.767Z,29.75
2023-12-03T18:15:06.683Z,33.47
2023-12-03T18:18:09.158Z,22.13
2023-12-03T18:21:11.586Z,30.83
2023-12-03T18:24:13.957Z,33.25
2023-12-03T18:27:17.066Z,32.15
2023-12-03T18:30:19.537Z,30.00
2023-12-03T18:33:22.115Z,26.90
2023-12-03T18:36:24.561Z,25.92
2023-12-03T18:39:27.658Z,19.63
2023-12-03T18:42:29.989Z,28.15
2023-12-03T18:45:32.383Z,26.58
2023-12-03T18:48:34.897Z,29.08
2023-12-03T18:51:37.283Z,32.20
2023-12-03T18:54:42.314Z,39.80
2023-12-03T18:57:45.704Z,37.65
2023-12-03T19:00:48.089Z,33.47
2023-12-03T19:03:50.462Z,37.13
2023-12-03T19:06:52.856Z,42.40
2023-12-03T19:09:55.415Z,36.65
2023-12-03T19:13:02.677Z,36.15
2023-12-03T19:16:10.700Z,27.75
2023-12-03T19:19:14.678Z,27.23
2023-12-03T19:22:17.165Z,24.30
2023-12-03T19:25:19.627Z,22.73
2023-12-03T19:28:23.135Z,24.02
2023-12-03T19:31:26.293Z,19.25
2023-12-03T19:34:29.557Z,22.63
2023-12-03T19:37:32.295Z,25.67
2023-12-03T19:40:34.667Z,22.77
2023-12-03T19:43:37.252Z,26.13
2023-12-03T19:46:39.578Z,33.05
2023-12-03T19:49:42.206Z,33.35
2023-12-03T19:52:44.544Z,26.10
2023-12-03T19:55:47.974Z,29.98
2023-12-03T19:58:50.477Z,26.60
2023-12-03T20:01:52.897Z,32.58
2023-12-03T20:04:55.525Z,28.02
2023-12-03T20:07:57.930Z,20.80
2023-12-03T20:11:00.384Z,23.40
2023-12-03T20:14:03.167Z,26.63
2023-12-03T20:17:05.690Z,26.02
2023-12-03T20:20:08.721Z,23.08
2023-12-03T20:23:11.082Z,23.80
2023-12-03T20:26:13.647Z,19.88
2023-12-03T20:29:16.121Z,19.85
2023-12-03T20:32:18.528Z,19.75
2023-12-03T20:35:20.889Z,22.75
2023-12-03T20:38:23.789Z,22.65
2023-12-03T20:41:26.124Z,14.73
2023-12-03T20:44:28.447Z,14.82
2023-12-03T20:47:30.855Z,16.70
2023-12-03T20:50:35.185Z,14.63
2023-12-03T20:53:37.961Z,16.08
2023-12-03T20:56:40.500Z,10.47
2023-12-03T20:59:42.955Z,13.25
2023-12-03T21:02:45.710Z,12.90
2023-12-03T21:05:48.097Z,8.63
2023-12-03T21:08:51.082Z,9.27
2023-12-03T21:11:53.496Z,8.80
2023-12-03T21:14:55.849Z,10.77
2023-12-03T21:17:58.162Z,9.18
2023-12-03T21:21:00.547Z,10.32
2023-12-03T21:24:03.885Z,14.05
2023-12-03T21:27:06.232Z,15.05
2023-12-03T21:30:09.150Z,11.75
2023-12-03T21:33:11.505Z,11.23
2023-12-03T21:36:14.290Z,12.85
2023-12-03T21:39:16.582Z,7.53
2023-12-03T21:42:19.251Z,13.57
2023-12-03T21:45:22.072Z,12.65
2023-12-03T21:48:24.573Z,10.93
2023-12-03T21:51:27.803Z,11.80
2023-12-03T21:54:30.244Z,15.50
2023-12-03T21:57:32.862Z,15.32
2023-12-03T22:00:35.176Z,18.65
2023-12-03T22:03:37.651Z,16.20
2023-12-03T22:06:39.985Z,41.03
2023-12-03T22:09:42.788Z,40.80
2023-12-03T22:12:45.098Z,26.40
2023-12-03T22:15:48.924Z,16.50
2023-12-03T22:18:51.966Z,17.35
2023-12-03T22:21:54.469Z,17.33
2023-12-03T22:24:56.893Z,14.75
2023-12-03T22:27:59.220Z,16.10
2023-12-03T22:31:01.723Z,15.27
2023-12-03T22:34:04.142Z,13.18
2023-12-03T22:37:06.546Z,17.85
2023-12-03T22:40:10.627Z,25.10
2023-12-03T22:43:13.137Z,21.70
2023-12-03T22:46:15.833Z,21.45
2023-12-03T22:49:18.377Z,16.97
2023-12-03T22:52:21.161Z,16.45
2023-12-03T22:55:23.608Z,18.77
2023-12-03T22:58:25.908Z,16.25
2023-12-03T23:01:28.859Z,14.15
2023-12-03T23:04:31.348Z,15.45
2023-12-03T23:07:33.654Z,13.93
2023-12-03T23:10:36.257Z,13.40
2023-12-03T23:13:38.619Z,12.75
2023-12-03T23:16:44.501Z,13.15
2023-12-03T23:19:47.251Z,13.25
2023-12-03T23:22:49.996Z,13.60
2023-12-03T23:25:52.309Z,12.63
2023-12-03T23:28:54.632Z,11.40
2023-12-03T23:31:56.908Z,12.60
2023-12-03T23:34:59.185Z,16.52
2023-12-03T23:38:01.944Z,12.95
2023-12-03T23:41:04.417Z,12.93
2023-12-03T23:44:06.786Z,12.98
2023-12-03T23:47:11.309Z,15.45
2023-12-03T23:50:13.732Z,15.30
2023-12-03T23:53:16.094Z,14.55
2023-12-03T23:56:24.701Z,17.95
2023-12-03T23:59:27.864Z,15.15
